Airfield :
LOGIN :

Register | Disclaimer

   EN    FR    IT 

 










Legend :    VFR   Marginal VFR   IFR   Intensive IFR   Very Intensive IFR
Visi :
Ceiling :
>= 8 km
>= 3000ft
5 to 8 km
1000 to 3000 ft
1500m to 5 km
500 to 1000 ft
800 to 1500m
200 to 500 ft
< 800m
< 200 ft
Symbols :   Thunderstorms  Fog  Heavy snow  Heavy precipitations  Wind > 20 kt
SIGMETs :     Misc.  Thunderstorms  Icing  Turbulence  Mountain Waves  Volcanic Ashes







- Airport Elevation : 290 ft
- IATA code : OSI


LDOS - Osijek

CURRENT METAR :
  • 221200Z 06013KT 3000 -SN BR BKN007 OVC027 01/00 Q1012 R11/69//94

EXPIRED METARs :
  • 221130Z 06013KT 2000 -SN BR BKN005 OVC007 01/00 Q1012 R11/69//94
  • 221100Z 06014KT 2000 -SN BR BKN005 OVC007 01/00 Q1012 R11/69//94
  • 221030Z 06013KT 2000 -SN BR OVC005 00/M00 Q1012 R11/69//94
  • 221000Z 06012KT 2000 -SN BR OVC005 00/M00 Q1012 RESN R11/69//94
  • 220930Z 05011KT 0800 SN BR OVC003 00/M00 Q1012 R11/69//94

TAF TAF LDOS
Valid from the 22 at 12:00 until the 23 at 12:00 UTC


221125Z 2212/2312 06014KT 2000 -SN BR OVC005 TX02/2214Z TN00/2212Z
BECMG 2212/2214 8000 NSW BKN010 OVC030
PROB30
TEMPO 2214/2300 3000 -SN OVC010
No reported NOTAMs for that airfield.
1 SIGMET reported for the Zagreb FIR (LDZO) :
 
Severe turbulence
LDZO SIGMET 7 VALID 221200/221500 LDZA
LDZO ZAGREB FIR SEV TURB FCST WI N4535 E01431 - N4436 E01553 - N4415 E01509 - N4527 E01339 - N4535 E01431 SFC/6000FT STNR NC=



MET'MAP, your aeronautical weather chart ! - Copyright ORBIFLY December 2007 - Disclaimer

ORBIFLY MET'MAP TEAM :

Programming & Development : Alexandra Zaïnal
Concept & Development : Baudouin d'Aumeries
Co-Development & Prog : Marc-Olivier Méhu
Technical & hardware support : Manuel Goepfert

Contact : metmap@orbifly.com




SOURCES & CREDITS :

   NOAA